sensor_id;sensor_type;location;lat;lon;timestamp;P1;durP1;ratioP1;P2;durP2;ratioP2
61739;SDS011;47645;45.288;12.038;2023-04-15T00:02:30;2.1;;;1.4;;
61739;SDS011;47645;45.288;12.038;2023-04-15T00:12:31;3.8;;;2.5;;
61739;SDS011;47645;45.288;12.038;2023-04-15T00:22:32;3.3;;;2.0;;
61739;SDS011;47645;45.288;12.038;2023-04-15T00:32:33;2.8;;;1.7;;
61739;SDS011;47645;45.288;12.038;2023-04-15T00:42:33;4.9;;;2.7;;
61739;SDS011;47645;45.288;12.038;2023-04-15T00:52:34;3.6;;;2.3;;
61739;SDS011;47645;45.288;12.038;2023-04-15T01:02:35;3.6;;;2.0;;
61739;SDS011;47645;45.288;12.038;2023-04-15T01:12:37;3.1;;;1.8;;
61739;SDS011;47645;45.288;12.038;2023-04-15T01:22:36;4.3;;;1.9;;
61739;SDS011;47645;45.288;12.038;2023-04-15T01:32:36;4.1;;;2.9;;
61739;SDS011;47645;45.288;12.038;2023-04-15T01:42:37;5.2;;;2.9;;
61739;SDS011;47645;45.288;12.038;2023-04-15T01:52:38;6.8;;;3.0;;
61739;SDS011;47645;45.288;12.038;2023-04-15T02:02:38;4.1;;;2.6;;
61739;SDS011;47645;45.288;12.038;2023-04-15T02:12:40;5.4;;;3.0;;
61739;SDS011;47645;45.288;12.038;2023-04-15T02:22:40;5.5;;;3.0;;
61739;SDS011;47645;45.288;12.038;2023-04-15T02:32:43;5.4;;;2.3;;
61739;SDS011;47645;45.288;12.038;2023-04-15T02:42:41;6.0;;;2.9;;
61739;SDS011;47645;45.288;12.038;2023-04-15T02:52:42;3.2;;;2.5;;
61739;SDS011;47645;45.288;12.038;2023-04-15T03:02:43;6.1;;;3.2;;
61739;SDS011;47645;45.288;12.038;2023-04-15T03:12:43;4.8;;;3.2;;
61739;SDS011;47645;45.288;12.038;2023-04-15T03:22:43;5.7;;;3.1;;
61739;SDS011;47645;45.288;12.038;2023-04-15T03:32:44;5.2;;;3.4;;
61739;SDS011;47645;45.288;12.038;2023-04-15T03:42:45;3.7;;;2.8;;
61739;SDS011;47645;45.288;12.038;2023-04-15T03:52:45;5.4;;;2.9;;
61739;SDS011;47645;45.288;12.038;2023-04-15T04:02:46;5.2;;;3.2;;
61739;SDS011;47645;45.288;12.038;2023-04-15T04:12:47;4.9;;;3.2;;
61739;SDS011;47645;45.288;12.038;2023-04-15T04:22:47;4.4;;;3.2;;
61739;SDS011;47645;45.288;12.038;2023-04-15T04:32:48;4.6;;;3.5;;
61739;SDS011;47645;45.288;12.038;2023-04-15T04:42:48;5.8;;;3.2;;
61739;SDS011;47645;45.288;12.038;2023-04-15T04:52:49;5.8;;;4.5;;
61739;SDS011;47645;45.288;12.038;2023-04-15T05:02:49;5.5;;;4.2;;
61739;SDS011;47645;45.288;12.038;2023-04-15T05:12:52;5.2;;;3.6;;
61739;SDS011;47645;45.288;12.038;2023-04-15T05:22:50;6.2;;;3.8;;
61739;SDS011;47645;45.288;12.038;2023-04-15T05:32:51;6.0;;;3.7;;
61739;SDS011;47645;45.288;12.038;2023-04-15T05:42:52;10.3;;;5.1;;
61739;SDS011;47645;45.288;12.038;2023-04-15T05:52:52;10.4;;;6.2;;
61739;SDS011;47645;45.288;12.038;2023-04-15T06:02:53;8.1;;;5.0;;
61739;SDS011;47645;45.288;12.038;2023-04-15T06:12:54;7.2;;;5.6;;
61739;SDS011;47645;45.288;12.038;2023-04-15T06:22:54;10.8;;;5.8;;
61739;SDS011;47645;45.288;12.038;2023-04-15T06:32:55;8.1;;;5.6;;
61739;SDS011;47645;45.288;12.038;2023-04-15T06:42:55;8.7;;;6.0;;
61739;SDS011;47645;45.288;12.038;2023-04-15T06:52:56;9.9;;;6.6;;
61739;SDS011;47645;45.288;12.038;2023-04-15T07:02:56;13.3;;;6.2;;
61739;SDS011;47645;45.288;12.038;2023-04-15T07:12:57;9.5;;;5.5;;
61739;SDS011;47645;45.288;12.038;2023-04-15T07:22:58;11.9;;;5.8;;
61739;SDS011;47645;45.288;12.038;2023-04-15T07:32:58;7.2;;;5.2;;
61739;SDS011;47645;45.288;12.038;2023-04-15T07:42:59;7.4;;;4.5;;
61739;SDS011;47645;45.288;12.038;2023-04-15T07:53:00;7.8;;;3.7;;
61739;SDS011;47645;45.288;12.038;2023-04-15T08:03:00;8.2;;;4.0;;
61739;SDS011;47645;45.288;12.038;2023-04-15T08:13:00;8.8;;;4.5;;
61739;SDS011;47645;45.288;12.038;2023-04-15T08:23:02;10.0;;;3.7;;
61739;SDS011;47645;45.288;12.038;2023-04-15T08:33:02;8.5;;;3.9;;
61739;SDS011;47645;45.288;12.038;2023-04-15T08:43:03;9.1;;;3.5;;
61739;SDS011;47645;45.288;12.038;2023-04-15T08:53:03;8.0;;;3.0;;
61739;SDS011;47645;45.288;12.038;2023-04-15T09:03:05;8.7;;;2.9;;
61739;SDS011;47645;45.288;12.038;2023-04-15T09:13:06;9.2;;;2.8;;
61739;SDS011;47645;45.288;12.038;2023-04-15T09:23:14;11.0;;;3.2;;
61739;SDS011;47645;45.288;12.038;2023-04-15T09:33:07;6.1;;;2.5;;
61739;SDS011;47645;45.288;12.038;2023-04-15T09:43:08;8.9;;;2.0;;
61739;SDS011;47645;45.288;12.038;2023-04-15T09:53:09;9.8;;;1.9;;
61739;SDS011;47645;45.288;12.038;2023-04-15T10:03:09;7.5;;;1.9;;
61739;SDS011;47645;45.288;12.038;2023-04-15T10:13:10;8.1;;;2.3;;
61739;SDS011;47645;45.288;12.038;2023-04-15T10:23:11;8.1;;;2.3;;
61739;SDS011;47645;45.288;12.038;2023-04-15T10:33:12;10.6;;;2.0;;
61739;SDS011;47645;45.288;12.038;2023-04-15T10:43:15;7.6;;;1.8;;
61739;SDS011;47645;45.288;12.038;2023-04-15T10:53:20;7.2;;;1.7;;
61739;SDS011;47645;45.288;12.038;2023-04-15T11:03:15;8.6;;;2.3;;
61739;SDS011;47645;45.288;12.038;2023-04-15T11:13:18;10.2;;;1.7;;
61739;SDS011;47645;45.288;12.038;2023-04-15T11:23:17;6.5;;;1.6;;
61739;SDS011;47645;45.288;12.038;2023-04-15T11:33:18;6.2;;;1.6;;
61739;SDS011;47645;45.288;12.038;2023-04-15T11:43:21;5.7;;;1.6;;
61739;SDS011;47645;45.288;12.038;2023-04-15T11:53:20;6.3;;;1.6;;
61739;SDS011;47645;45.288;12.038;2023-04-15T12:03:22;8.1;;;1.6;;
61739;SDS011;47645;45.288;12.038;2023-04-15T12:13:23;5.3;;;1.6;;
61739;SDS011;47645;45.288;12.038;2023-04-15T12:23:24;6.6;;;1.5;;
61739;SDS011;47645;45.288;12.038;2023-04-15T12:33:31;4.6;;;1.4;;
61739;SDS011;47645;45.288;12.038;2023-04-15T12:43:26;3.6;;;1.1;;
61739;SDS011;47645;45.288;12.038;2023-04-15T12:53:27;4.5;;;1.2;;
61739;SDS011;47645;45.288;12.038;2023-04-15T13:03:28;8.7;;;1.9;;
61739;SDS011;47645;45.288;12.038;2023-04-15T13:13:31;7.3;;;1.4;;
61739;SDS011;47645;45.288;12.038;2023-04-15T13:23:31;6.2;;;1.5;;
61739;SDS011;47645;45.288;12.038;2023-04-15T13:33:32;7.7;;;1.4;;
61739;SDS011;47645;45.288;12.038;2023-04-15T13:43:34;10.8;;;2.2;;
61739;SDS011;47645;45.288;12.038;2023-04-15T13:53:35;6.0;;;1.6;;
61739;SDS011;47645;45.288;12.038;2023-04-15T14:03:36;6.2;;;2.1;;
61739;SDS011;47645;45.288;12.038;2023-04-15T14:13:37;6.0;;;2.5;;
61739;SDS011;47645;45.288;12.038;2023-04-15T14:23:39;8.3;;;3.0;;
61739;SDS011;47645;45.288;12.038;2023-04-15T14:33:40;4.6;;;1.8;;
61739;SDS011;47645;45.288;12.038;2023-04-15T14:43:41;7.5;;;2.6;;
61739;SDS011;47645;45.288;12.038;2023-04-15T14:53:43;5.6;;;2.3;;
61739;SDS011;47645;45.288;12.038;2023-04-15T15:03:43;4.5;;;1.3;;
61739;SDS011;47645;45.288;12.038;2023-04-15T15:13:45;4.6;;;1.2;;
61739;SDS011;47645;45.288;12.038;2023-04-15T15:23:47;3.2;;;0.9;;
61739;SDS011;47645;45.288;12.038;2023-04-15T15:33:47;4.7;;;0.8;;
61739;SDS011;47645;45.288;12.038;2023-04-15T15:43:48;3.0;;;0.8;;
61739;SDS011;47645;45.288;12.038;2023-04-15T15:53:49;2.9;;;0.7;;
61739;SDS011;47645;45.288;12.038;2023-04-15T16:03:50;2.4;;;0.7;;
61739;SDS011;47645;45.288;12.038;2023-04-15T16:13:51;2.8;;;1.0;;
61739;SDS011;47645;45.288;12.038;2023-04-15T16:23:53;1.9;;;0.7;;
61739;SDS011;47645;45.288;12.038;2023-04-15T16:33:54;2.8;;;1.1;;
61739;SDS011;47645;45.288;12.038;2023-04-15T16:43:55;4.1;;;1.0;;
61739;SDS011;47645;45.288;12.038;2023-04-15T16:53:56;3.1;;;0.8;;
61739;SDS011;47645;45.288;12.038;2023-04-15T17:03:57;3.1;;;0.9;;
61739;SDS011;47645;45.288;12.038;2023-04-15T17:13:58;5.8;;;2.7;;
61739;SDS011;47645;45.288;12.038;2023-04-15T17:23:59;4.7;;;1.1;;
61739;SDS011;47645;45.288;12.038;2023-04-15T17:34:00;3.4;;;1.5;;
61739;SDS011;47645;45.288;12.038;2023-04-15T17:44:01;4.7;;;2.5;;
61739;SDS011;47645;45.288;12.038;2023-04-15T17:54:02;5.2;;;2.1;;
61739;SDS011;47645;45.288;12.038;2023-04-15T18:04:03;4.3;;;1.8;;
61739;SDS011;47645;45.288;12.038;2023-04-15T18:14:03;7.7;;;3.3;;
61739;SDS011;47645;45.288;12.038;2023-04-15T18:24:05;5.7;;;3.1;;
61739;SDS011;47645;45.288;12.038;2023-04-15T18:34:06;8.5;;;4.1;;
61739;SDS011;47645;45.288;12.038;2023-04-15T18:44:06;5.5;;;2.1;;
61739;SDS011;47645;45.288;12.038;2023-04-15T18:54:07;5.9;;;2.4;;
61739;SDS011;47645;45.288;12.038;2023-04-15T19:04:09;6.5;;;3.1;;
61739;SDS011;47645;45.288;12.038;2023-04-15T19:14:08;6.3;;;2.9;;
61739;SDS011;47645;45.288;12.038;2023-04-15T19:24:09;6.9;;;3.0;;
61739;SDS011;47645;45.288;12.038;2023-04-15T19:34:10;10.2;;;3.5;;
61739;SDS011;47645;45.288;12.038;2023-04-15T19:44:12;6.5;;;2.3;;
61739;SDS011;47645;45.288;12.038;2023-04-15T19:54:12;6.3;;;2.3;;
61739;SDS011;47645;45.288;12.038;2023-04-15T20:04:12;7.9;;;2.5;;
61739;SDS011;47645;45.288;12.038;2023-04-15T20:14:13;6.8;;;3.4;;
61739;SDS011;47645;45.288;12.038;2023-04-15T20:24:14;8.5;;;2.8;;
61739;SDS011;47645;45.288;12.038;2023-04-15T20:34:15;12.5;;;4.5;;
61739;SDS011;47645;45.288;12.038;2023-04-15T20:44:16;6.0;;;2.3;;
61739;SDS011;47645;45.288;12.038;2023-04-15T20:54:18;5.5;;;2.3;;
61739;SDS011;47645;45.288;12.038;2023-04-15T21:04:18;4.3;;;2.2;;
61739;SDS011;47645;45.288;12.038;2023-04-15T21:14:18;4.5;;;2.0;;
61739;SDS011;47645;45.288;12.038;2023-04-15T21:24:19;6.5;;;2.8;;
61739;SDS011;47645;45.288;12.038;2023-04-15T21:34:20;6.4;;;2.6;;
61739;SDS011;47645;45.288;12.038;2023-04-15T21:44:20;7.1;;;2.6;;
61739;SDS011;47645;45.288;12.038;2023-04-15T21:54:21;7.9;;;3.3;;
61739;SDS011;47645;45.288;12.038;2023-04-15T22:04:22;4.9;;;2.1;;
61739;SDS011;47645;45.288;12.038;2023-04-15T22:14:23;6.9;;;2.3;;
61739;SDS011;47645;45.288;12.038;2023-04-15T22:24:23;3.9;;;2.0;;
61739;SDS011;47645;45.288;12.038;2023-04-15T22:34:24;6.0;;;2.3;;
61739;SDS011;47645;45.288;12.038;2023-04-15T22:44:25;5.0;;;1.9;;
61739;SDS011;47645;45.288;12.038;2023-04-15T22:54:26;5.8;;;2.5;;
61739;SDS011;47645;45.288;12.038;2023-04-15T23:04:26;6.2;;;2.5;;
61739;SDS011;47645;45.288;12.038;2023-04-15T23:14:28;3.5;;;1.8;;
61739;SDS011;47645;45.288;12.038;2023-04-15T23:24:28;3.7;;;2.0;;
61739;SDS011;47645;45.288;12.038;2023-04-15T23:34:28;3.2;;;2.0;;
61739;SDS011;47645;45.288;12.038;2023-04-15T23:44:29;6.6;;;2.0;;
61739;SDS011;47645;45.288;12.038;2023-04-15T23:54:30;4.2;;;2.2;;
